Tiempo atmosférico en la estación meteorológica de Aranda De Duero, Burgos (790 m.)



Fecha
DESCASC
Temp. máxima en grados centígrados (hora)
DESCASC
Temp. mínima en grados centígrados (hora)
DESCASC
Temp. media en grados centígrados
DESCASC
Racha de viento máxima en m/sg (hora)
DESCASC
Velocidad máxima media en intervalos de 10 minutos(hora)
DESCASC
Precipitaciones diarias en mm
DESCASC
Precipitaciones de 00:00 a 06:00 en mm
DESCASC
Precipitaciones de 06:00 a 12:00 en mm
DESCASC
Precipitaciones de 12:00 a 18:00 en mm
DESCASC
Precipitaciones de 18:00 a 24:00 en mm
DESCASC
22-08-2019 30.7 (17:00) 9.6 (07:30) 20.2 6.11 (20:00) 2.5 (17:30) 0 0 0 0 0
21-08-2019 29.6 (17:10) 14.2 (07:30) 21.9 10.83 (03:50) 4.72 (03:50) 0 0 0 0 0
20-08-2019 26.8 (16:30) 13.6 (06:40) 20.2 8.89 (21:20) 3.89 (20:10) 0 0 0 0 0
19-08-2019 26.1 (14:50) 13.9 (07:50) 20 8.06 (18:00) 3.89 (15:40) 0 0 0 0 0
18-08-2019 32.3 (17:20) 10.8 (00:00) 21.5 10.28 (17:10) 4.17 (17:30) 0 0 0 0 0
17-08-2019 35.6 (16:50) 10.7 (00:00) 23.1 10.83 (17:00) 5 (16:30) 0 0 0 0 0
16-08-2019 34.4 (16:50) 14.5 (00:00) 24.5 11.11 (17:00) 3.89 (17:00) 0 0 0 0 0
15-08-2019 32.1 (16:50) 11.9 (00:00) 22 8.06 (18:50) 3.33 (18:50) 0 0 0 0 0
14-08-2019 31.2 (17:00) 7.5 (00:00) 19.4 7.22 (13:50) 3.06 (14:40) 0 0 0 0 0
13-08-2019 26.4 (17:00) 6.8 (00:00) 16.6 8.61 (18:00) 3.61 (17:30) 0 0 0 0 0
12-08-2019 22.4 (17:00) 8.8 (00:00) 15.6 10.56 (14:10) 4.72 (16:30) 0 0 0 0 0
11-08-2019 25.8 (17:00) 14.4 (00:00) 20.1 9.17 (15:40) 3.33 (17:10) 1.6 1.6 0 0 0
10-08-2019 27.9 (17:50) 11.1 (00:00) 19.5 5.56 (14:30) 2.78 (23:30) 0.4 0.2 0 0 0.2
09-08-2019 28.2 (12:50) 14.1 (00:00) 21.2 13.61 (08:40) 6.11 (11:10) 1.6 0 0 0 1.6
08-08-2019 32.8 (17:30) 15.5 (00:00) 24.1 11.67 (18:20) 4.44 (17:50) 0 0 0 0 0
07-08-2019 28.2 (13:40) 16.1 (00:00) 22.2 10.83 (18:30) 4.17 (18:20) 0 0 0 0 0
06-08-2019 34 (17:00) 13 (00:00) 23.5 8.06 (16:20) 2.5 (17:50) 0 0 0 0 0
05-08-2019 35.6 (17:40) 13.1 (00:00) 24.3 10 (17:30) 2.78 (17:00) 0 0 0 0 0
04-08-2019 35.5 (17:50) 11.8 (00:00) 23.7 8.06 (17:40) 3.06 (18:20) 0 0 0 0 0
03-08-2019 36.3 (17:10) 17.4 (00:00) 26.8 10.56 (14:50) 3.33 (09:00) 0 0 0 0 0
02-08-2019 34.2 (18:00) 12 (00:00) 23.1 6.94 (15:30) 2.78 (14:00) 0 0 0 0 0
01-08-2019 31.6 (17:10) 17.8 (00:00) 24.7 8.89 (15:10) 3.89 (00:40) 0.2 0 0.2 0 0
31-07-2019 31.9 (17:40) 11.1 (00:00) 21.5 10.83 (10:50) 5.28 (09:40) 0 0 0 0 0
30-07-2019 26.3 (17:40) 10.5 (00:00) 18.4 7.78 (14:50) 3.61 (20:30) 0 0 0 0 0
29-07-2019 30 (16:50) 7.8 (00:00) 18.9 10.28 (15:40) 3.89 (14:40) 0 0 0 0 0
28-07-2019 27.5 (17:50) 7.6 (00:00) 17.5 6.94 (15:30) 3.33 (18:00) 0 0 0 0 0
27-07-2019 22.9 (18:10) 13.5 (00:00) 18.2 11.67 (14:20) 5 (14:10) 0 0 0 0 0
26-07-2019 28.9 (17:40) 16.8 (00:00) 22.8 9.44 (16:30) 3.61 (21:10) 1.2 1.2 0 0 0

Gráficas

Temp. máximas Temp. mínimas Temp. medias Precipitaciones Rachas de viento máximas Velocidades máximas media en intervalos de 10 minutos

Datos horarios

Fecha y hora oficial Temperatura (ºC) Velocidad del viento (km/h) Dirección del viento Racha (km/h) Dirección de racha Precipitación (mm) Presión (hPa) Tendencia (hPa) Humedad (%)
2019-08-24 23:00:00 20.9 4 Este 15 Este 0 927.9 1.1 33
2019-08-24 22:00:00 23.3 0 Calma 3 Este 0 927.2 0.1 27
2019-08-24 21:00:00 27.4 0 Calma 8 Noroeste 0 926.7 -0.7 25
2019-08-24 20:00:00 30.5 3 Noroeste 16 Norte 0 926.8 -1 14
2019-08-24 19:00:00 32 3 Oeste 21 Oeste 0 927.1 -1.2 13
2019-08-24 18:00:00 32.9 6 Sur 22 Sudoeste 0 927.4 -1.2 13
2019-08-24 17:00:00 34.5 4 Sudoeste 21 Sudoeste 0 927.8 -1.2 11
2019-08-24 16:00:00 32.8 6 Sur 29 Sudoeste 0 928.3 -1.2 12
2019-08-24 15:00:00 32.4 7 Oeste 27 Sudoeste 0 928.6 -1.3 12
2019-08-24 14:00:00 30.5 5 Noroeste 14 Noroeste 0 929 -1 16
2019-08-24 13:00:00 29.5 6 Nordeste 12 Este 0 929.5 -0.6 19
2019-08-24 12:00:00 27.3 4 Este 18 Sudeste 0 929.9 0 22
2019-08-24 11:00:00 24.6 7 Sudeste 25 Este 0 930 0.4 30
2019-08-24 10:00:00 20.9 9 Este 18 Este 0 930.1 0.8 39
2019-08-24 09:00:00 17.2 6 Este 10 Sudeste 0 929.9 0.7 50
2019-08-24 08:00:00 11.2 0 Calma 4 Sudoeste 0 929.6 0.4 66
2019-08-24 07:00:00 12.2 0 Calma 7 Sudeste 0 929.3 0.2 62
2019-08-24 06:00:00 14.1 5 Sudeste 14 Sudeste 0 929.2 0 59
2019-08-24 05:00:00 14.3 6 Este 13 Sudeste 0 929.2 0.1 61
2019-08-24 04:00:00 14.1 4 Este 8 Sudoeste 0 929.1 0.1 60
2019-08-24 03:00:00 15.2 0 Calma 9 Sudeste 0 929.2 0.2 56
2019-08-24 02:00:00 15.4 0 Calma 8 Este 0 929.1 0.5 53
2019-08-24 01:00:00 15.4 4 Este 7 Sudeste 0 929 0.8 49
2019-08-24 00:00:00 17.1 3 Sur 9 Sudeste 0 929 1.4 51
2019-08-23 23:00:00 19.9 0 Calma 6 Sudoeste 0 928.6 1.1 34
2019-08-23 22:00:00 23.3 0 Calma 8 Oeste 0 928.2 0.4 32
2019-08-23 21:00:00 27.8 2 Sudoeste 14 Noroeste 0 927.6 -0.5 18
2019-08-23 20:00:00 29.9 3 Oeste 13 Noroeste 0 927.5 -1 14
2019-08-23 19:00:00 30.8 5 Noroeste 17 Noroeste 0 927.8 -1 12
2019-08-23 18:00:00 32.1 7 Oeste 18 Noroeste 0 928.1 -1.3 11
2019-08-23 17:00:00 32.4 6 Noroeste 21 Norte 0 928.5 -1.5 11
2019-08-23 16:00:00 31.5 6 Oeste 27 Noroeste 0 928.8 -1.7 14
2019-08-23 15:00:00 30.6 8 Oeste 21 Sudoeste 0 929.4 -1.6 14
2019-08-23 14:00:00 30 4 Oeste 25 Sudoeste 0 930 -1.3 14
2019-08-23 13:00:00 29.2 3 Sudoeste 16 Sudoeste 0 930.5 -0.9 18
2019-08-23 12:00:00 26.4 3 Nordeste 12 Este 0 931 -0.3 25
2019-08-23 11:00:00 23.5 6 Este 20 Este 0 931.3 0.5 31
2019-08-23 10:00:00 19.9 9 Este 16 Este 0 931.4 1.2 40
2019-08-23 09:00:00 17.4 5 Sudeste 18 Este 0 931.3 1.1 46
2019-08-23 08:00:00 14.4 8 Este 20 Este 0 930.8 0.6 53
2019-08-23 07:00:00 15.1 10 Este 21 Este 0 930.2 -0.1 50
2019-08-23 06:00:00 15.5 8 Este 19 Este 0 930.2 -0.2 50
2019-08-23 05:00:00 16.1 9 Este 20 Este 0 930.2 -0.2 48
2019-08-23 04:00:00 16.7 8 Este 22 Este 0 930.3 -0.2 47
2019-08-23 03:00:00 16.4 6 Este 15 Sudeste 0 930.4 -0.2 46
2019-08-23 02:00:00 14.6 5 Este 9 Este 0 930.4 -0.1 50
2019-08-23 01:00:00 16.5 3 Este 11 Este 0 930.5 0.2 42
2019-08-23 00:00:00 16 3 Este 5 Sudoeste 0 930.6 1 43
2019-08-22 23:00:00 18.8 0 Calma 12 Norte 0 930.5 1.4 31
2019-08-22 22:00:00 22.7 3 Este 9 Noroeste 0 930.3 1.1 27
2019-08-22 21:00:00 26.1 5 Noroeste 19 Noroeste 0 929.6 0.1 15
2019-08-22 20:00:00 28.1 7 Noroeste 22 Noroeste 0 929.1 -0.6 12
2019-08-22 19:00:00 28.9 3 Este 16 Noroeste 0 929.2 -1.2 11
2019-08-22 18:00:00 29.5 2 Sur 16 Norte 0 929.5 -1.4 13
2019-08-22 17:00:00 30.2 3 Este 14 Noroeste 0 929.7 -1.8 11
2019-08-22 16:00:00 28.7 4 Norte 20 Sudeste 0 930.4 -1.6 14
2019-08-22 15:00:00 27.4 4 Este 14 Sudoeste 0 930.9 -1.3 14
2019-08-22 14:00:00 26.3 4 Oeste 18 Este 0 931.5 -0.9 23
2019-08-22 13:00:00 25.8 5 Norte 16 Noroeste 0 932 -0.6 28
2019-08-22 12:00:00 23.8 5 Norte 13 Noroeste 0 932.2 -0.2 37
2019-08-22 11:00:00 21.3 4 Este 11 Sudeste 0 932.4 0.4 49
2019-08-22 10:00:00 18.2 4 Nordeste 9 Este 0 932.6 0.9 63
2019-08-22 09:00:00 15.4 0 Calma 6 Sudeste 0 932.4 1.1 72
2019-08-22 08:00:00 10.5 0 Calma 4 Sudoeste 0 932 0.6 84
2019-08-22 07:00:00 10.4 0 Calma 5 Sudoeste 0 931.7 0.4 83
2019-08-22 06:00:00 11.9 0 Calma 5 Este 0 931.3 0 78
2019-08-22 05:00:00 14 0 Calma 8 Este 0 931.4 0.1 74
2019-08-22 04:00:00 15.8 5 Este 14 Este 0 931.3 -0.2 75
2019-08-22 03:00:00 16.7 5 Este 15 Este 0 931.3 -0.2 74
2019-08-22 02:00:00 16.6 5 Nordeste 12 Nordeste 0 931.3 0.2 75
2019-08-22 01:00:00 17.9 4 Nordeste 13 Este 0 931.5 1.2 68
2019-08-22 00:00:00 19.7 6 Este 15 Este 0 931.5 1.8 61
2019-08-21 23:00:00 20 3 Nordeste 14 Sudeste 0 931.1 2.3 43
2019-08-21 22:00:00 21.8 5 Norte 19 Nordeste 0 930.3 1.8 37
2019-08-21 21:00:00 24.2 10 Nordeste 25 Norte 0 929.7 1.3 29
2019-08-21 20:00:00 26.3 13 Norte 28 Noroeste 0 928.8 0.3 23
2019-08-21 19:00:00 27.4 7 Norte 29 Noroeste 0 928.5 -0.3 22
2019-08-21 18:00:00 28.1 7 Noroeste 30 Noroeste 0 928.4 -0.9 19
2019-08-21 17:00:00 29.1 9 Noroeste 27 Noroeste 0 928.5 -1.1 22
2019-08-21 16:00:00 28.9 5 Oeste 21 Noroeste 0 928.8 -1.2 27
2019-08-21 15:00:00 26.6 4 Norte 13 Oeste 0 929.3 -1.1 33
2019-08-21 14:00:00 26.2 4 Noroeste 16 Noroeste 0 929.6 -1 35
2019-08-21 13:00:00 24.8 6 Norte 12 Noroeste 0 930 -0.6 40
2019-08-21 12:00:00 23.2 3 Sudeste 22 Este 0 930.4 -0.4 48
2019-08-21 11:00:00 21.3 11 Sudeste 30 Este 0 930.6 0 51
2019-08-21 10:00:00 17.7 13 Este 30 Sudeste 0 930.6 0.1 61
2019-08-21 09:00:00 15.5 11 Este 26 Este 0 930.8 0.3 66
2019-08-21 08:00:00 14.6 12 Este 27 Sudeste 0 930.6 -0.1 68
2019-08-21 07:00:00 14.5 11 Este 29 Este 0 930.5 -0.5 67
2019-08-21 06:00:00 14.7 12 Este 28 Sudeste 0 930.5 -0.7 65
2019-08-21 05:00:00 15 11 Este 31 Este 0 930.7 -0.4 64
2019-08-21 04:00:00 15.3 16 Este 39 Sudeste 0 931 -0.2 63
2019-08-21 03:00:00 15.8 12 Este 32 Este 0 931.2 0 61
2019-08-21 02:00:00 16.2 13 Este 30 Este 0 931.1 0.2 60
2019-08-21 01:00:00 17.3 10 Este 27 Este 0 931.2 0.9 54
2019-08-21 00:00:00 18.5 11 Este 30 Este 0 931.2 1.7 49
2019-08-20 23:00:00 19.6 12 Este 28 Este 0 930.9 1.8 46
2019-08-20 22:00:00 21.3 13 Este 32 Este 0 930.3 1.3 42
2019-08-20 21:00:00 23 13 Este 30 Norte 0 929.5 0.5 36
2019-08-20 20:00:00 23.5 13 Norte 28 Norte 0 929.1 -0.2 35
2019-08-20 19:00:00 25.5 5 Sudeste 17 Sudeste 0 929 -1 28
2019-08-20 18:00:00 25.8 3 Sudeste 16 Este 0 929 -1.4 24
2019-08-20 17:00:00 25.9 7 Norte 15 Nordeste 0 929.3 -1.3 25
2019-08-20 16:00:00 25.2 5 Sudeste 22 Sudeste 0 930 -0.8 27
2019-08-20 15:00:00 23.7 6 Sudeste 25 Sudeste 0 930.4 -0.2 36
2019-08-20 14:00:00 23.1 6 Sudeste 24 Sudeste 0 930.6 0.3 43
2019-08-20 13:00:00 22.8 6 Sudeste 26 Sudeste 0 930.8 0.8 47
2019-08-20 12:00:00 20.5 11 Este 24 Sudeste 0 930.6 1.1 55
2019-08-20 11:00:00 19.6 7 Este 18 Este 0 930.3 1.4 55
2019-08-20 10:00:00 17.8 5 Norte 19 Nordeste 0 930 1.9 57
2019-08-20 09:00:00 15.9 4 Norte 14 Noroeste 0 929.5 2 64
2019-08-20 08:00:00 14.4 3 Noroeste 13 Noroeste 0 928.9 2.1 72
2019-08-20 07:00:00 13.9 3 Oeste 11 Noroeste 0 928.1 1.3 77
2019-08-20 06:00:00 14.9 4 Sudoeste 11 Sudoeste 0 927.5 0 73
2019-08-20 05:00:00 15.3 2 Oeste 15 Noroeste 0 926.8 -0.9 68
2019-08-20 04:00:00 15.4 4 Noroeste 9 Norte 0 926.8 -1 71
2019-08-20 03:00:00 15.6 3 Sudeste 9 Este 0 927.5 -0.1 70
2019-08-20 02:00:00 14.8 0 Calma 10 Oeste 0 927.7 0 73
2019-08-20 01:00:00 15 4 Sudoeste 9 Oeste 0 927.8 0.9 72
2019-08-20 00:00:00 16.4 2 Oeste 14 Noroeste 0 927.6 1.3 69
2019-08-19 23:00:00 17.2 3 Oeste 15 Noroeste 0 927.7 1.2 59
2019-08-19 22:00:00 18 5 Norte 19 Noroeste 0 926.9 0.4 58
2019-08-19 21:00:00 19.6 5 Noroeste 18 Noroeste 0 926.3 0 53
2019-08-19 20:00:00 20.7 3 Norte 17 Noroeste 0 926.5 0.5 51
2019-08-19 19:00:00 21.2 7 Norte 25 Noroeste 0 926.5 0.2 49
2019-08-19 18:00:00 22.9 13 Noroeste 29 Noroeste 0 926.3 -0.1 44
2019-08-19 17:00:00 25.6 6 Noroeste 26 Noroeste 0 926 -0.5 38
2019-08-19 16:00:00 25 13 Noroeste 28 Norte 0 926.3 -0.4 41
2019-08-19 15:00:00 25.5 5 Norte 18 Noroeste 0 926.4 -0.6 40
2019-08-19 14:00:00 24.1 4 Norte 13 Este 0 926.5 -0.4 46
2019-08-19 13:00:00 24.4 4 Norte 15 Este 0 926.7 -0.4 46
2019-08-19 12:00:00 22.1 3 Sudoeste 13 Nordeste 0 927 0.1 52
2019-08-19 11:00:00 20.7 5 Este 17 Este 0 926.9 0.1 56
2019-08-19 10:00:00 17.1 3 Norte 6 Noroeste 0 927.1 0.5 67
2019-08-19 09:00:00 15.1 0 Calma 5 Oeste 0 926.9 0.3 75
2019-08-19 08:00:00 14 0 Calma 5 Oeste 0 926.8 0.2 78
2019-08-19 07:00:00 14.1 4 Sudoeste 8 Oeste 0 926.6 0.1 78
2019-08-19 06:00:00 15.1 2 Sudoeste 10 Oeste 0 926.6 -0.1 76
2019-08-19 05:00:00 15.3 2 Oeste 11 Noroeste 0 926.6 -0.3 71
2019-08-19 04:00:00 15.8 2 Oeste 8 Noroeste 0 926.5 -0.1 72
2019-08-19 03:00:00 16.2 2 Sudoeste 15 Oeste 0 926.7 0.2 71
2019-08-19 02:00:00 16.6 4 Oeste 10 Oeste 0 926.9 0.8 70
2019-08-19 01:00:00 17.8 3 Sudoeste 8 Oeste 0 926.6 1.3 66
2019-08-19 00:00:00 18.8 0 Calma 5 Oeste 0 926.5 2 62
2019-08-18 23:00:00 20.7 0 Calma 12 Norte 0 926.1 2 56
2019-08-18 22:00:00 22.1 8 Noroeste 29 Norte 0 925.3 1.4 50
2019-08-18 21:00:00 25.1 10 Noroeste 35 Noroeste 0 924.5 0.4 44
2019-08-18 20:00:00 28.3 6 Oeste 34 Oeste 0 924.1 0.1 26
2019-08-18 19:00:00 29.9 6 Oeste 31 Oeste 0 923.9 -0.2 22
2019-08-18 18:00:00 31.5 10 Oeste 37 Oeste 0 924.1 -0.5 16
2019-08-18 17:00:00 32 11 Oeste 32 Oeste 0 924 -0.8 13
2019-08-18 16:00:00 30 13 Oeste 36 Oeste 0 924.1 -1.1 15
2019-08-18 15:00:00 29.6 11 Oeste 33 Sudoeste 0 924.6 -0.6 21
2019-08-18 14:00:00 29.1 7 Oeste 25 Oeste 0 924.8 -0.4 23
2019-08-18 13:00:00 27.7 8 Oeste 22 Oeste 0 925.2 -0.1 26
2019-08-18 12:00:00 26.6 8 Sudoeste 26 Oeste 0 925.2 0.1 28
2019-08-18 11:00:00 25.9 5 Sudoeste 16 Sudoeste 0 925.2 0.3 29
2019-08-18 10:00:00 24 3 Oeste 11 Oeste 0 925.3 0.9 35
2019-08-18 09:00:00 18.7 0 Calma 5 Este 0 925.1 1.3 47
2019-08-18 08:00:00 12.4 0 Calma 4 Este 0 924.9 0.9 58
2019-08-18 07:00:00 11.2 0 Calma 5 Este 0 924.4 0.1 62
2019-08-18 06:00:00 11.5 3 Este 4 Este 0 923.8 -0.4 60
2019-08-18 05:00:00 12.2 2 Este 5 Este 0 924 -0.4 61
2019-08-18 04:00:00 13.2 0 Calma 4 Sudoeste 0 924.3 -0.2 51
2019-08-18 03:00:00 14.3 2 Este 3 Este 0 924.2 -0.3 52
2019-08-18 02:00:00 15.5 3 Este 4 Este 0 924.4 0 48
2019-08-18 01:00:00 16.6 0 Calma 3 Este 0 924.5 0.5 49
2019-08-18 00:00:00 18.6 3 Sudeste 4 Sudeste 0 924.5 1 45
2019-08-17 23:00:00 21.1 0 Calma 5 Sudoeste 0 924.4 1 33
2019-08-17 22:00:00 25.2 2 Sudoeste 9 Oeste 0 924 0.3 27
2019-08-17 21:00:00 29.7 3 Oeste 14 Oeste 0 923.5 -0.5 18
2019-08-17 20:00:00 32.1 5 Oeste 35 Oeste 0 923.4 -1.2 14
2019-08-17 19:00:00 33.8 7 Oeste 32 Sudoeste 0 923.7 -1.3 12
2019-08-17 18:00:00 34.9 10 Oeste 38 Sudoeste 0 924 -1.8 12
2019-08-17 17:00:00 35.6 11 Sudoeste 39 Oeste 0 924.6 -1.9 9
2019-08-17 16:00:00 34.1 8 Oeste 33 Oeste 0 925 -2.3 13
2019-08-17 15:00:00 31.7 8 Oeste 20 Sudoeste 0 925.8 -2 18
2019-08-17 14:00:00 30.2 4 Sudoeste 17 Oeste 0 926.5 -1.6 23
2019-08-17 13:00:00 29.4 4 Sudoeste 16 Sudoeste 0 927.3 -1 24
2019-08-17 12:00:00 27.9 4 Oeste 11 Norte 0 927.8 -0.3 27
2019-08-17 11:00:00 24.8 2 Nordeste 7 Este 0 928.1 0.1 31
2019-08-17 10:00:00 21.1 4 Este 9 Este 0 928.3 0.6 35
2019-08-17 09:00:00 17.5 7 Este 12 Sudeste 0 928.1 0.8 47
2019-08-17 08:00:00 12.1 3 Este 6 Este 0 928 0.7 66
2019-08-17 07:00:00 10.8 2 Este 5 Sudoeste 0 927.7 0.2 67
2019-08-17 06:00:00 12 2 Este 6 Este 0 927.3 -0.2 65
2019-08-17 05:00:00 12.5 0 Calma 5 Este 0 927.3 -0.3 65
2019-08-17 04:00:00 13.2 3 Este 5 Este 0 927.5 0.3 66
2019-08-17 03:00:00 14.3 2 Este 5 Este 0 927.5 0.4 61
2019-08-17 02:00:00 15.2 0 Calma 4 Nordeste 0 927.6 0.4 57
2019-08-17 01:00:00 16.3 0 Calma 6 Este 0 927.2 0.6 60
2019-08-17 00:00:00 18.6 0 Calma 4 Sudoeste 0 927.1 0.9 64
2019-08-16 23:00:00 20.9 3 Sudoeste 6 Sudoeste 0 927.2 1.3 36
2019-08-16 22:00:00 24.9 0 Calma 9 Oeste 0 926.6 0.8 31
2019-08-16 21:00:00 29.1 3 Oeste 15 Oeste 0 926.2 0 22
2019-08-16 20:00:00 31.1 5 Noroeste 24 Oeste 0 925.9 -0.6 19
2019-08-16 19:00:00 32.7 7 Oeste 30 Sudoeste 0 925.8 -1.1 16
2019-08-16 18:00:00 33.8 9 Oeste 31 Oeste 0 926.2 -1.2 14
2019-08-16 17:00:00 34.1 14 Sudoeste 40 Sudoeste 0 926.5 -1.5 15
2019-08-16 16:00:00 32.8 8 Oeste 26 Oeste 0 926.9 -1.5 18
2019-08-16 15:00:00 32 6 Oeste 27 Sudoeste 0 927.4 -1.4 21
2019-08-16 14:00:00 30.3 4 Norte 20 Noroeste 0 928 -1.1 25
2019-08-16 13:00:00 29.8 4 Oeste 12 Sudoeste 0 928.4 -1 25
2019-08-16 12:00:00 26.8 3 Norte 10 Este 0 928.8 -0.6 34
2019-08-16 11:00:00 24.3 2 Nordeste 11 Sudeste 0 929.1 0.1 39
2019-08-16 10:00:00 21.8 4 Sudeste 15 Sudeste 0 929.4 0.6 43
2019-08-16 09:00:00 18.8 7 Este 16 Este 0 929.4 0.8 52
2019-08-16 08:00:00 16.3 2 Sudeste 14 Este 0 929 0 63
2019-08-16 07:00:00 15.9 6 Este 15 Este 0 928.8 -0.6 61
2019-08-16 06:00:00 16.4 7 Este 22 Este 0 928.6 -0.9 59
2019-08-16 05:00:00 17 8 Este 19 Este 0 929 -0.8 58
2019-08-16 04:00:00 17.6 6 Este 19 Este 0 929.4 -0.6 56
2019-08-16 03:00:00 17.9 8 Este 18 Este 0 929.5 -0.6 57
2019-08-16 02:00:00 14.5 3 Este 5 Este 0 929.8 -0.2 73
2019-08-16 01:00:00 15.5 0 Calma 4 Sudoeste 0 930 0.3 66
2019-08-16 00:00:00 18.1 0 Calma 4 Sudoeste 0 930.1 0.9 58
2019-08-15 23:00:00 20.3 0 Calma 7 Norte 0 930 1.1 47
2019-08-15 22:00:00 23.2 2 Este 15 Norte 0 929.7 0.9 40
2019-08-15 21:00:00 25.2 6 Norte 22 Nordeste 0 929.2 0.5 32
2019-08-15 20:00:00 26.9 10 Norte 29 Noroeste 0 928.9 -0.1 30
2019-08-15 19:00:00 28.3 10 Norte 29 Norte 0 928.8 -0.7 28
2019-08-15 18:00:00 30.5 7 Noroeste 22 Oeste 0 928.7 -1.3 22
2019-08-15 17:00:00 32 7 Sudoeste 22 Sudoeste 0 929 -1.5 20
2019-08-15 16:00:00 30 4 Sudoeste 26 Sudoeste 0 929.5 -1.5 22
2019-08-15 15:00:00 28.8 7 Oeste 23 Noroeste 0 930 -1.4 23
2019-08-15 14:00:00 28.2 6 Sudoeste 21 Oeste 0 930.5 -0.9 24
2019-08-15 13:00:00 26.8 4 Oeste 20 Sudoeste 0 931 -0.4 30
2019-08-15 12:00:00 24.5 2 Nordeste 9 Noroeste 0 931.4 0.2 33
2019-08-15 11:00:00 22.5 3 Norte 10 Sudoeste 0 931.4 0.4 40
2019-08-15 10:00:00 20.9 3 Oeste 12 Oeste 0 931.4 1.1 47
2019-08-15 09:00:00 17.6 5 Sudeste 9 Sudeste 0 931.2 1.1 53
2019-08-15 08:00:00 12.8 0 Calma 5 Sudoeste 0 931 1.4 74
2019-08-15 07:00:00 12.3 0 Calma 10 Sudoeste 0 930.3 0.7 74
2019-08-15 06:00:00 12.4 3 Sudoeste 8 Sudoeste 0 930.1 0.3 69
2019-08-15 05:00:00 12.7 0 Calma 6 Sudoeste 0 929.6 -0.5 59
2019-08-15 04:00:00 13.4 2 Oeste 4 Norte 0 929.6 -0.2 62
2019-08-15 03:00:00 14.1 0 Calma 3 Oeste 0 929.8 0.1 63
2019-08-15 02:00:00 15 0 Calma 6 Sudeste 0 930.1 0.6 61
2019-08-15 01:00:00 16 2 Este 9 Nordeste 0 929.8 0.8 58
2019-08-15 00:00:00 18.1 0 Calma 4 Sudeste 0 929.7 1 60
2019-08-14 23:00:00 20.2 0 Calma 3 Sudoeste 0 929.5 1 41
2019-08-14 22:00:00 23.2 3 Sudoeste 6 Oeste 0 929 0.3 32
2019-08-14 21:00:00 27.4 3 Sudoeste 13 Oeste 0 928.7 -0.1 22
2019-08-14 20:00:00 29.2 4 Sudoeste 19 Oeste 0 928.5 -0.8 16
2019-08-14 19:00:00 29.1 6 Noroeste 24 Noroeste 0 928.7 -1 16
2019-08-14 18:00:00 29.8 10 Noroeste 22 Noroeste 0 928.8 -1.5 15
2019-08-14 17:00:00 30.8 6 Noroeste 20 Oeste 0 929.3 -1.3 14
2019-08-14 16:00:00 29.2 5 Oeste 23 Noroeste 0 929.7 -1.3 15
2019-08-14 15:00:00 28.4 5 Oeste 25 Noroeste 0 930.3 -0.9 16
2019-08-14 14:00:00 27.1 6 Noroeste 26 Noroeste 0 930.6 -1.1 19
2019-08-14 13:00:00 26.3 5 Noroeste 18 Sudoeste 0 931 -0.6 20
2019-08-14 12:00:00 24.7 5 Sudoeste 15 Sudoeste 0 931.2 -0.2 23
2019-08-14 11:00:00 21 4 Nordeste 9 Norte 0 931.7 0.9 33
2019-08-14 10:00:00 17.8 3 Sudeste 13 Este 0 931.6 0.9 42
2019-08-14 09:00:00 14.1 5 Este 13 Este 0 931.4 0.6 53
2019-08-14 08:00:00 9.5 2 Este 6 Sudeste 0 930.8 0.1 73
2019-08-14 07:00:00 7.9 2 Este 5 Este 0 930.7 -0.3 74
2019-08-14 06:00:00 8.5 0 Calma 4 Sudoeste 0 930.8 -0.3 71
2019-08-14 05:00:00 9.6 0 Calma 8 Este 0 930.7 -0.5 64
2019-08-14 04:00:00 9.9 0 Calma 6 Este 0 931 0.2 70
2019-08-14 03:00:00 10.7 3 Este 7 Este 0 931.1 0.5 70
2019-08-14 02:00:00 10.6 3 Este 8 Este 0 931.2 0.6 68
2019-08-14 01:00:00 11.4 2 Sudoeste 4 Sudoeste 0 930.8 0.6 57
2019-08-14 00:00:00 13.7 0 Calma 4 Sudeste 0 930.6 0.9 56
2019-08-13 23:00:00 15.6 2 Sudeste 4 Sudeste 0 930.6 1.1 40
2019-08-13 22:00:00 18.6 0 Calma 9 Norte 0 930.2 0.7 35
2019-08-13 21:00:00 21.9 4 Norte 14 Norte 0 929.7 0.2 24
2019-08-13 20:00:00 23.3 7 Norte 18 Norte 0 929.5 -0.4 19
2019-08-13 19:00:00 23.9 10 Noroeste 26 Noroeste 0 929.5 -0.6 17
2019-08-13 18:00:00 24.6 12 Noroeste 31 Noroeste 0 929.5 -0.9 16
2019-08-13 17:00:00 26.3 7 Oeste 24 Norte 0 929.9 -1.1 15
2019-08-13 16:00:00 24.9 4 Oeste 24 Sudoeste 0 930.1 -1.4 19
2019-08-13 15:00:00 23.8 7 Sudoeste 23 Sudoeste 0 930.4 -1.4 20
2019-08-13 14:00:00 22.5 6 Oeste 20 Oeste 0 931 -0.9 26
2019-08-13 13:00:00 21.5 5 Norte 24 Oeste 0 931.5 -0.3 30
2019-08-13 12:00:00 20.5 3 Sudoeste 13 Este 0 931.8 0.1 34
2019-08-13 11:00:00 17.9 5 Nordeste 20 Sudeste 0 931.9 0.3 41
2019-08-13 10:00:00 15.8 9 Este 21 Sudeste 0 931.8 0.7 47
2019-08-13 09:00:00 13.2 8 Este 17 Sudeste 0 931.7 0.6 60
2019-08-13 08:00:00 7.7 0 Calma 5 Sudoeste 0 931.6 0.5 76
2019-08-13 07:00:00 7.7 0 Calma 3 Sudoeste 0 931.1 -0.2 75
2019-08-13 06:00:00 10.1 0 Calma 4 Sudoeste 0 931.1 -0.6 72
2019-08-13 05:00:00 11.3 0 Calma 8 Sudoeste 0 931.1 -1.1 65
2019-08-13 04:00:00 12 0 Calma 10 Este 0 931.3 -1 62
2019-08-13 03:00:00 12.3 4 Este 17 Norte 0 931.7 -0.3 62
2019-08-13 02:00:00 12.3 6 Norte 17 Noroeste 0 932.2 0.6 62
2019-08-13 01:00:00 13.1 4 Norte 14 Norte 0 932.3 1.4 60
2019-08-13 00:00:00 14.9 5 Norte 13 Nordeste 0 932 1.5 52
2019-08-12 23:00:00 16.4 4 Nordeste 13 Nordeste 0 931.6 1.6 48
2019-08-12 22:00:00 17 6 Este 22 Nordeste 0 930.9 1.1 43
2019-08-12 21:00:00 18.1 10 Norte 27 Noroeste 0 930.5 0.8 37
2019-08-12 20:00:00 19.8 13 Norte 32 Nordeste 0 930 0 30
2019-08-12 19:00:00 20.9 9 Norte 26 Noroeste 0 929.8 -0.6 27
2019-08-12 18:00:00 22 10 Norte 30 Norte 0 929.7 -1 24
2019-08-12 17:00:00 22.3 11 Norte 34 Noroeste 0 930 -1.1 22
2019-08-12 16:00:00 21.8 10 Norte 28 Noroeste 0 930.4 -1.3 25
2019-08-12 15:00:00 21 9 Noroeste 38 Noroeste 0 930.7 -0.8 28
2019-08-12 14:00:00 19.4 12 Norte 30 Nordeste 0 931.1 -0.3 31
2019-08-12 13:00:00 19.5 12 Norte 30 Norte 0 931.7 0.4 32
2019-08-12 12:00:00 18.6 12 Noroeste 32 Norte 0 931.5 0.7 35
2019-08-12 11:00:00 17.5 9 Norte 21 Noroeste 0 931.4 1.2 44
2019-08-12 10:00:00 15.5 9 Nordeste 18 Norte 0 931.3 1.7 52
2019-08-12 09:00:00 13.9 3 Oeste 9 Oeste 0 930.8 1.4 62
2019-08-12 08:00:00 10.2 3 Sudoeste 11 Oeste 0 930.2 0.9 80
2019-08-12 07:00:00 9 3 Sudoeste 11 Oeste 0 929.6 0.3 83
2019-08-12 06:00:00 9.9 3 Sudoeste 10 Oeste 0 929.4 0.1 81
2019-08-12 05:00:00 10.4 3 Sudoeste 12 Sudoeste 0 929.3 -0.2 76
2019-08-12 04:00:00 11.4 4 Sudoeste 11 Noroeste 0 929.3 0.2 72
2019-08-12 03:00:00 12 3 Oeste 14 Noroeste 0 929.3 0.9 71
2019-08-12 02:00:00 12.7 4 Oeste 13 Oeste 0 929.5 1.3 73
2019-08-12 01:00:00 13.9 4 Oeste 14 Oeste 0 929.1 1.6 71
2019-08-12 00:00:00 15.4 3 Sudoeste 11 Noroeste 0 928.4 1.3 65
2019-08-11 23:00:00 16.9 3 Noroeste 15 Nordeste 0 928.2 1.5 51
2019-08-11 22:00:00 18.8 2 Sudoeste 12 Oeste 0 927.5 1 33
2019-08-11 21:00:00 21.3 4 Oeste 23 Oeste 0 927.1 0.4 26
2019-08-11 20:00:00 22.9 6 Oeste 28 Oeste 0 926.7 0 26
2019-08-11 19:00:00 23.7 9 Oeste 32 Oeste 0 926.5 -0.6 27
2019-08-11 18:00:00 25.1 8 Oeste 31 Oeste 0 926.7 -0.4 25
2019-08-11 17:00:00 25.8 8 Sudoeste 31 Oeste 0 926.7 -0.7 28
2019-08-11 16:00:00 25 8 Oeste 33 Noroeste 0 927.1 -0.6 32
2019-08-11 15:00:00 24 10 Noroeste 31 Noroeste 0 927.1 -0.8 36
2019-08-11 14:00:00 24.1 6 Oeste 25 Noroeste 0 927.4 0 34
2019-08-11 13:00:00 23.2 5 Noroeste 24 Oeste 0 927.7 0.1 39
2019-08-11 12:00:00 22.8 5 Oeste 19 Noroeste 0 927.9 0.5 42
2019-08-11 11:00:00 22 4 Norte 9 Noroeste 0 927.4 0.1 43
2019-08-11 10:00:00 20.6 2 Sur 10 Este 0 927.6 0.5 51
2019-08-11 09:00:00 18.2 0 Calma 4 Sudoeste 0 927.4 -0.7 66
2019-08-11 08:00:00 15.1 0 Calma 13 Sudeste 0 927.3 -0.3 80
2019-08-11 07:00:00 14.4 4 Este 10 Este 0 927.1 0.7 81
2019-08-11 06:00:00 14.6 2 Noroeste 17 Oeste 0 928.1 0.7 79
2019-08-11 05:00:00 15.2 6 Oeste 17 Oeste 0 927.6 0.4 82
2019-08-11 04:00:00 15.9 2 Sudoeste 12 Oeste 0 926.4 -1 82
2019-08-11 03:00:00 16.5 3 Sudoeste 8 Noroeste 0.4 927.4 0.2 82
2019-08-11 02:00:00 17.1 4 Oeste 15 Oeste 1.2 927.2 -0.4 80
2019-08-11 01:00:00 18.4 5 Sudoeste 15 Oeste 0 927.4 0.1 71
2019-08-11 00:00:00 19.6 6 Noroeste 20 Noroeste 0.2 927.2 0.1 52
2019-08-10 23:00:00 21.4 2 Oeste 10 Oeste 0 927.6 0.7 41
2019-08-10 22:00:00 22.5 0 Calma 7 Noroeste 0 927.3 0.2 43
2019-08-10 21:00:00 24.7 2 Noroeste 12 Noroeste 0 927.1 -0.5 29
2019-08-10 20:00:00 26.2 5 Noroeste 17 Noroeste 0 926.9 -1.4 24
2019-08-10 19:00:00 26.2 6 Noroeste 20 Noroeste 0 927.1 -1.9 22
2019-08-10 18:00:00 27.4 3 Noroeste 19 Oeste 0 927.6 -2.1 24
2019-08-10 17:00:00 26.7 5 Noroeste 19 Oeste 0 928.3 -1.8 26
2019-08-10 16:00:00 25.9 6 Sudoeste 19 Norte 0 929 -1.6 30
2019-08-10 15:00:00 24.5 5 Oeste 20 Oeste 0 929.7 -1.4 37
2019-08-10 14:00:00 22.7 3 Noroeste 14 Noroeste 0 930.1 -1.3 45
2019-08-10 13:00:00 22.3 5 Noroeste 17 Sudoeste 0 930.6 -0.5 48
2019-08-10 12:00:00 20.7 3 Oeste 14 Oeste 0 931.1 0.4 51
2019-08-10 11:00:00 18.9 6 Noroeste 13 Noroeste 0 931.4 1.2 66
2019-08-10 10:00:00 17.3 3 Sudoeste 9 Oeste 0 931.1 1.1 72
2019-08-10 09:00:00 16.1 0 Calma 6 Este 0 930.7 0.9 76
2019-08-10 08:00:00 12.1 3 Sudeste 5 Este 0 930.2 0.6 87
2019-08-10 07:00:00 11.2 3 Este 5 Sudeste 0 930 0.5 88
2019-08-10 06:00:00 11.5 0 Calma 7 Sudeste 0 929.8 0.5 87
2019-08-10 05:00:00 11.9 2 Este 6 Sudeste 0 929.6 0.1 87
2019-08-10 04:00:00 12 0 Calma 5 Este 0 929.5 0.1 86
2019-08-10 03:00:00 12.8 2 Este 5 Este 0 929.3 0.1 87
2019-08-10 02:00:00 13.3 0 Calma 6 Sudoeste 0.2 929.5 0.4 87
2019-08-10 01:00:00 13.6 0 Calma 8 Este 0 929.4 0.9 87
2019-08-10 00:00:00 14.2 2 Este 6 Norte 0 929.2 0.9 86
2019-08-09 23:00:00 14.8 2 Este 6 Norte 0 929.1 0.2 84
2019-08-09 22:00:00 15.5 2 Este 21 Sudoeste 0 928.5 1.3 82
2019-08-09 21:00:00 15.9 0 Calma 32 Oeste 1.4 928.3 2.1 82
2019-08-09 20:00:00 18.5 8 Oeste 44 Oeste 0.2 928.9 3.1 72
2019-08-09 19:00:00 23.2 14 Sudoeste 42 Sudoeste 0 927.2 1 45
2019-08-09 18:00:00 25.9 15 Oeste 43 Oeste 0 926.2 0.3 42
2019-08-09 17:00:00 26.6 18 Sudoeste 42 Sudoeste 0 925.8 -0.3 43
2019-08-09 16:00:00 27.3 11 Oeste 41 Oeste 0 926.2 0.2 43
2019-08-09 15:00:00 28.2 11 Sudoeste 41 Oeste 0 925.9 0.3 41
2019-08-09 14:00:00 27.2 10 Oeste 36 Oeste 0 926.1 0.6 45
2019-08-09 13:00:00 27.6 10 Oeste 44 Sudoeste 0 926 0.8 43
2019-08-09 12:00:00 26.7 17 Sudoeste 48 Sudoeste 0 925.6 0.7 44
2019-08-09 11:00:00 25.7 17 Sudoeste 45 Sudoeste 0 925.5 0.8 46
2019-08-09 10:00:00 24.5 16 Sudoeste 41 Sudoeste 0 925.2 0.6 46
2019-08-09 09:00:00 21.4 5 Sudoeste 49 Sudoeste 0 924.9 0.4 58
2019-08-09 08:00:00 18 0 Calma 4 Sudoeste 0 924.7 0.2 78
2019-08-09 07:00:00 17.1 3 Sudoeste 11 Sudoeste 0 924.6 0.1 75
2019-08-09 06:00:00 19 3 Sudoeste 16 Sudoeste 0 924.5 0 70
2019-08-09 05:00:00 19.6 8 Sudoeste 18 Sudoeste 0 924.5 -0.3 63
2019-08-09 04:00:00 17.6 0 Calma 8 Sudoeste 0 924.5 -0.3 68
2019-08-09 03:00:00 18.9 0 Calma 9 Sudoeste 0 924.5 0.2 61
2019-08-09 02:00:00 20.5 3 Sudoeste 13 Sudoeste 0 924.8 0.8 54
2019-08-09 01:00:00 22 3 Sur 9 Sudoeste 0 924.8 1.5 47
2019-08-09 00:00:00 23.7 6 Sudoeste 14 Sudoeste 0 924.3 1.5 50
2019-08-08 23:00:00 25.8 5 Sudoeste 17 Sudoeste 0 924 1.7 36
2019-08-08 22:00:00 27.7 7 Sudoeste 31 Oeste 0 923.3 0.8 31
2019-08-08 21:00:00 29.4 9 Sudoeste 34 Oeste 0 922.8 0 24
2019-08-08 20:00:00 31.4 12 Sudoeste 35 Sudoeste 0 922.3 -0.9 22
2019-08-08 19:00:00 31.9 14 Sudoeste 42 Sudoeste 0 922.5 -1.5 26
2019-08-08 18:00:00 32.4 8 Sudoeste 39 Sudoeste 0 922.8 -1.8 26
2019-08-08 17:00:00 31.5 14 Sudoeste 38 Sudoeste 0 923.2 -1.9 27
2019-08-08 16:00:00 30 10 Sudoeste 32 Oeste 0 924 -1.5 30
2019-08-08 15:00:00 29.2 8 Sudoeste 28 Sudoeste 0 924.6 -1.2 33
2019-08-08 14:00:00 28 8 Oeste 24 Sudoeste 0 925.1 -0.9 37
2019-08-08 13:00:00 28 10 Sudoeste 31 Oeste 0 925.5 -0.3 38
2019-08-08 12:00:00 26.3 11 Oeste 26 Sudoeste 0 925.8 -0.1 40
2019-08-08 11:00:00 24.7 10 Sudoeste 31 Sudoeste 0 926 0.3 44
2019-08-08 10:00:00 24.1 12 Sudoeste 26 Sudoeste 0 925.8 0.1 45
2019-08-08 09:00:00 20 0 Calma 8 Sudoeste 0 925.9 0.3 64
2019-08-08 08:00:00 17.5 2 Sudoeste 16 Sudoeste 0 925.7 0.1 73
2019-08-08 07:00:00 16 2 Norte 3 Norte 0 925.7 0 77
2019-08-08 06:00:00 16.3 2 Nordeste 12 Sudoeste 0 925.6 -0.1 72
2019-08-08 05:00:00 16 3 Sudoeste 10 Sudoeste 0 925.6 -0.1 72
2019-08-08 04:00:00 15.8 0 Calma 3 Este 0 925.7 0 73
2019-08-08 03:00:00 16.2 0 Calma 3 Sudoeste 0 925.7 -0.1 67
2019-08-08 02:00:00 17.1 0 Calma 4 Sudoeste 0 925.7 0.1 70
2019-08-08 01:00:00 18.1 0 Calma 6 Noroeste 0 925.7 1 62
2019-08-08 00:00:00 20.7 2 Oeste 10 Oeste 0 925.8 1.5 62
2019-08-07 23:00:00 21.4 2 Oeste 10 Noroeste 0 925.6 1.4 49
2019-08-07 22:00:00 23 5 Noroeste 23 Sudoeste 0 924.7 0.3 42
2019-08-07 21:00:00 23.7 12 Sudoeste 38 Sudoeste 0 924.3 0.3 40
2019-08-07 20:00:00 24.1 13 Sudoeste 32 Sudoeste 0 924.2 0.3 37
2019-08-07 19:00:00 24.6 15 Sudoeste 39 Sudoeste 0 924.4 -0.1 34
2019-08-07 18:00:00 25.9 14 Sudoeste 33 Sudoeste 0 924 -0.5 33
2019-08-07 17:00:00 27 9 Sudoeste 22 Sudoeste 0 923.9 -0.6 31
2019-08-07 16:00:00 27.6 11 Sudoeste 34 Sudoeste 0 924.5 -0.1 27
2019-08-07 15:00:00 26.9 9 Sudoeste 33 Sudoeste 0 924.5 -0.4 31
2019-08-07 14:00:00 27.6 8 Sudoeste 28 Sudoeste 0 924.5 -0.2 31
2019-08-07 13:00:00 27.3 7 Sudoeste 20 Sudoeste 0 924.6 0.2 33
2019-08-07 12:00:00 26.3 6 Oeste 18 Noroeste 0 924.9 1 37
2019-08-07 11:00:00 24.3 4 Sudoeste 12 Sudoeste 0 924.7 1 44
2019-08-07 10:00:00 22.5 3 Sudoeste 11 Sudoeste 0 924.4 1.2 54
2019-08-07 09:00:00 21.9 0 Calma 5 Noroeste 0 923.9 1.2 59
2019-08-07 08:00:00 16.9 2 Noroeste 9 Sudoeste 0 923.7 1 79
2019-08-07 07:00:00 16.8 2 Sudoeste 8 Noroeste 0 923.2 0.4 75
2019-08-07 06:00:00 18.2 2 Oeste 8 Noroeste 0 922.7 0 73
2019-08-07 05:00:00 18.5 0 Calma 8 Oeste 0 922.7 -0.1 66
2019-08-07 04:00:00 18.9 2 Oeste 10 Sudoeste 0 922.8 -1.2 64
2019-08-07 03:00:00 19 2 Oeste 16 Oeste 0 922.7 -0.5 62
2019-08-07 02:00:00 19.1 4 Este 21 Noroeste 0 922.8 0.2 63
2019-08-07 01:00:00 20.7 9 Noroeste 22 Noroeste 0 924 1.9 62
2019-08-07 00:00:00 23.7 4 Oeste 21 Oeste 0 923.2 1.4 56
2019-08-06 23:00:00 24.7 2 Sudoeste 8 Noroeste 0 922.6 1.1 35
2019-08-06 22:00:00 26.5 4 Noroeste 12 Noroeste 0 922.1 0.5 27
2019-08-06 21:00:00 28.5 6 Noroeste 20 Noroeste 0 921.8 0 25
2019-08-06 20:00:00 30.4 4 Oeste 24 Noroeste 0 921.5 -0.9 22
2019-08-06 19:00:00 31.6 4 Oeste 27 Oeste 0 921.6 -1.3 20
2019-08-06 18:00:00 33.1 6 Oeste 24 Noroeste 0 921.8 -1.6 14
2019-08-06 17:00:00 34 8 Sudoeste 29 Oeste 0 922.4 -1.9 14
2019-08-06 16:00:00 32.8 8 Sudoeste 25 Sudoeste 0 922.9 -1.8 15
2019-08-06 15:00:00 31.8 4 Oeste 22 Oeste 0 923.4 -1.7 20
2019-08-06 14:00:00 30.4 4 Oeste 20 Oeste 0 924.3 -1 24
2019-08-06 13:00:00 30.2 4 Oeste 18 Noroeste 0 924.7 -0.6 27
2019-08-06 12:00:00 28 5 Oeste 15 Noroeste 0 925.1 -0.1 31
2019-08-06 11:00:00 25.6 5 Oeste 15 Noroeste 0 925.3 -0.1 37
2019-08-06 10:00:00 21.8 4 Nordeste 9 Nordeste 0 925.3 0.1 46
2019-08-06 09:00:00 18.9 4 Este 11 Sudeste 0 925.2 0.2 58
2019-08-06 08:00:00 15 0 Calma 7 Sudeste 0 925.4 0.7 76
2019-08-06 07:00:00 13.2 0 Calma 3 Este 0 925.2 0.3 78
2019-08-06 06:00:00 14 2 Sudoeste 4 Este 0 925 0 74
2019-08-06 05:00:00 15.1 0 Calma 3 Este 0 924.7 -0.5 74
2019-08-06 04:00:00 16.2 0 Calma 6 Sudoeste 0 924.9 -0.1 75
2019-08-06 03:00:00 16.9 3 Sudoeste 8 Oeste 0 925 0.4 70
2019-08-06 02:00:00 17.4 2 Oeste 5 Oeste 0 925.2 0.8 65
2019-08-06 01:00:00 18.4 2 Oeste 8 Oeste 0 925 1.3 59
2019-08-06 00:00:00 21 4 Sudoeste 8 Sudoeste 0 924.6 1.4 50
2019-08-05 23:00:00 22.9 4 Sudoeste 6 Sudoeste 0 924.4 1.5 30
2019-08-05 22:00:00 26.6 3 Sudoeste 9 Oeste 0 923.7 0.8 24
2019-08-05 21:00:00 30.2 2 Oeste 15 Noroeste 0 923.2 -0.1 17
2019-08-05 20:00:00 32 5 Noroeste 24 Oeste 0 922.9 -0.8 13
2019-08-05 19:00:00 33 8 Oeste 26 Noroeste 0 922.9 -1.4 12
2019-08-05 18:00:00 34.8 8 Oeste 36 Oeste 0 923.3 -1.5 10
2019-08-05 17:00:00 35.3 10 Sudoeste 30 Oeste 0 923.7 -1.4 10
2019-08-05 16:00:00 33.6 7 Noroeste 22 Sudoeste 0 924.3 -1.5 13
2019-08-05 15:00:00 33 6 Oeste 31 Oeste 0 924.8 -1.6 15
2019-08-05 14:00:00 31.4 8 Sudoeste 24 Sudoeste 0 925.1 -1.8 16
2019-08-05 13:00:00 29.2 5 Norte 14 Norte 0 925.8 -1.3 27
2019-08-05 12:00:00 27.1 3 Este 10 Este 0 926.4 -0.7 34
2019-08-05 11:00:00 23.7 4 Nordeste 10 Nordeste 0 926.9 -0.1 46
2019-08-05 10:00:00 20.7 4 Este 12 Sudeste 0 927.1 0.2 57
2019-08-05 09:00:00 18.1 4 Este 9 Este 0 927.1 0.6 69
2019-08-05 08:00:00 14.3 0 Calma 3 Este 0 927 0.6 82
2019-08-05 07:00:00 13.3 0 Calma -- -- 0 926.9 0.4 81
2019-08-05 06:00:00 14.7 0 Calma -- -- 0 926.5 0.1 81
2019-08-05 05:00:00 15.6 0 Calma 6 Oeste 0 926.4 -0.1 75
2019-08-05 04:00:00 16.8 2 Sudoeste 8 Sudoeste 0 926.5 0.3 74
2019-08-05 03:00:00 17.6 3 Sudoeste 8 Oeste 0 926.4 0.4 73
2019-08-05 02:00:00 17.5 2 Oeste 8 Oeste 0 926.5 0.9 68
2019-08-05 01:00:00 19.2 2 Oeste 8 Oeste 0 926.2 1.2 49
2019-08-05 00:00:00 20.5 5 Sudoeste 8 Sudoeste 0 926 1.6 37
2019-08-04 23:00:00 22.6 2 Sudoeste 6 Sudoeste 0 925.6 1.6 33
2019-08-04 22:00:00 26.9 4 Sudoeste 11 Noroeste 0 925 1.1 24
2019-08-04 21:00:00 30.2 3 Noroeste 23 Oeste 0 924.4 0.5 17
2019-08-04 20:00:00 31.9 5 Oeste 26 Oeste 0 924 -0.1 16
2019-08-04 19:00:00 33.4 8 Oeste 29 Sudoeste 0 923.9 -0.7 14
2019-08-04 18:00:00 35.4 6 Oeste 29 Oeste 0 923.9 -1.1 11
2019-08-04 17:00:00 35 6 Oeste 24 Oeste 0 924.1 -1.3 13
2019-08-04 16:00:00 33.9 6 Oeste 28 Sudoeste 0 924.6 -1.5 14
2019-08-04 15:00:00 32.4 7 Oeste 26 Sudoeste 0 925 -1.3 19
2019-08-04 14:00:00 31.2 6 Sudoeste 19 Sudoeste 0 925.4 -1.1 24
2019-08-04 13:00:00 30.6 4 Oeste 21 Sudoeste 0 926.1 -0.4 28
2019-08-04 12:00:00 28.3 4 Noroeste 14 Sudoeste 0 926.3 -0.2 33
2019-08-04 11:00:00 25.9 4 Norte 10 Norte 0 926.5 0.4 33
2019-08-04 10:00:00 22.7 3 Nordeste 8 Este 0 926.5 0.8 36
2019-08-04 09:00:00 18.8 4 Este 10 Sudeste 0 926.5 0.9 46
2019-08-04 08:00:00 14.5 2 Este 5 Este 0 926.1 0.7 59
2019-08-04 07:00:00 11.9 2 Este 4 Este 0 925.7 0.4 61
2019-08-04 06:00:00 12.4 0 Calma 4 Sudeste 0 925.6 0.9 52
2019-08-04 05:00:00 13 0 Calma 6 Sudoeste 0 925.4 0.8 45
2019-08-04 04:00:00 14 0 Calma 4 Este 0 925.3 0.7 45
2019-08-04 03:00:00 15.1 0 Calma 4 Este 0 924.7 0.4 43
2019-08-04 02:00:00 16.2 3 Este 6 Este 0 924.6 0.5 47
2019-08-04 01:00:00 17.5 3 Este 9 Norte 0 924.6 1.2 42
2019-08-04 00:00:00 19 2 Este 10 Nordeste 0 924.3 1.3 40
2019-08-03 23:00:00 21.6 0 Calma 5 Sudoeste 0 924.1 1.2 33
2019-08-03 22:00:00 25.9 0 Calma 8 Oeste 0 923.4 0.4 23
2019-08-03 21:00:00 30.5 2 Oeste 15 Noroeste 0 923 -0.3 12
2019-08-03 20:00:00 32.4 4 Oeste 21 Oeste 0 922.9 -0.8 10
2019-08-03 19:00:00 33.8 7 Oeste 30 Oeste 0 923 -1 8
2019-08-03 18:00:00 35.1 6 Oeste 29 Noroeste 0 923.3 -1.3 8
2019-08-03 17:00:00 36 8 Sudoeste 33 Oeste 0 923.7 -1.3 8
2019-08-03 16:00:00 35.1 8 Oeste 31 Oeste 0 924 -1.3 8
2019-08-03 15:00:00 33.8 7 Sudoeste 38 Sudoeste 0 924.6 -1 11
2019-08-03 14:00:00 32.9 7 Sudoeste 21 Sudoeste 0 925 -0.8 14
2019-08-03 13:00:00 31.9 4 Oeste 17 Oeste 0 925.3 -0.7 19
2019-08-03 12:00:00 29.5 2 Nordeste 10 Este 0 925.6 -0.3 25
2019-08-03 11:00:00 27.2 4 Sudeste 15 Este 0 925.8 0.1 29
2019-08-03 10:00:00 23.1 8 Este 26 Este 0 926 0.4 36
2019-08-03 09:00:00 20.8 12 Este 25 Sudeste 0 925.9 0.5 43
2019-08-03 08:00:00 18.6 9 Este 21 Este 0 925.7 -0.1 51
2019-08-03 07:00:00 17.5 6 Este 16 Este 0 925.6 -0.2 56
2019-08-03 06:00:00 18.7 5 Este 17 Sudeste 0 925.4 -0.8 53
2019-08-03 05:00:00 19.4 6 Este 17 Este 0 925.8 -0.8 51
2019-08-03 04:00:00 19.8 5 Este 23 Sudeste 0 925.8 -0.8 51
2019-08-03 03:00:00 20.4 9 Sudeste 16 Este 0 926.2 -0.2 49
2019-08-03 02:00:00 18.7 4 Sudeste 10 Este 0 926.6 0.4 56
2019-08-03 01:00:00 18.8 2 Este 12 Sudeste 0 926.6 1.2 61
2019-08-03 00:00:00 22.1 2 Este 11 Este 0 926.4 1.3 54
2019-08-02 23:00:00 23.3 5 Este 10 Este 0 926.2 1.3 37
2019-08-02 22:00:00 26.4 4 Nordeste 16 Noroeste 0 925.4 0.4 29
2019-08-02 21:00:00 28.8 5 Norte 15 Norte 0 925.1 -0.3 20
2019-08-02 20:00:00 30.4 6 Noroeste 18 Noroeste 0 924.9 -0.8 18
2019-08-02 19:00:00 31.5 7 Oeste 19 Noroeste 0 925 -1.2 14
2019-08-02 18:00:00 34.1 5 Sudoeste 22 Oeste 0 925.4 -1 13
2019-08-02 17:00:00 32.9 8 Oeste 24 Sudoeste 0 925.7 -1.1 14
2019-08-02 16:00:00 31.6 6 Noroeste 25 Sudoeste 0 926.2 -0.9 16
2019-08-02 15:00:00 30.4 5 Sur 21 Noroeste 0 926.4 -1 18
2019-08-02 14:00:00 29.8 10 Norte 20 Norte 0 926.8 -0.7 21
2019-08-02 13:00:00 28.7 3 Este 12 Este 0 927.1 -0.5 24
2019-08-02 12:00:00 26.3 4 Nordeste 14 Este 0 927.4 0 42
2019-08-02 11:00:00 23.5 5 Sudeste 14 Este 0 927.5 0.5 53
2019-08-02 10:00:00 21 5 Sudeste 12 Sudeste 0 927.6 0.7 59
2019-08-02 09:00:00 18.1 0 Calma 3 Este 0 927.4 0.9 68
2019-08-02 08:00:00 13.7 0 Calma 3 Oeste 0 927 0.5 84
2019-08-02 07:00:00 12.1 2 Sudoeste 5 Sudoeste 0 926.9 0.4 84
2019-08-02 06:00:00 12.8 0 Calma 4 Sudoeste 0 926.5 0 81
2019-08-02 05:00:00 13.4 3 Sudoeste 4 Sudoeste 0 926.5 0 78
2019-08-02 04:00:00 14.2 2 Sudoeste 4 Sudoeste 0 926.5 -0.1 77
2019-08-02 03:00:00 15.1 2 Sudoeste 6 Sudoeste 0 926.5 0.1 76
2019-08-02 02:00:00 16 5 Sudoeste 7 Sudoeste 0 926.5 0.7 76
2019-08-02 01:00:00 17.7 0 Calma 6 Noroeste 0 926.6 1.7 73
2019-08-02 00:00:00 20.4 2 Oeste 13 Norte 0 926.4 2.3 68
2019-08-01 23:00:00 22.1 5 Noroeste 17 Nordeste 0 925.8 2.4 55
2019-08-01 22:00:00 24 7 Norte 22 Noroeste 0 924.9 1.7 51
2019-08-01 21:00:00 26.3 8 Norte 21 Norte 0 924.1 0.7 38
2019-08-01 20:00:00 28.2 10 Norte 27 Norte 0 923.4 -0.1 27
2019-08-01 19:00:00 29.8 7 Noroeste 22 Noroeste 0 923.2 -0.5 19
2019-08-01 18:00:00 31.2 8 Oeste 30 Oeste 0 923.4 -0.4 17
2019-08-01 17:00:00 31.5 8 Oeste 31 Oeste 0 923.5 -0.5 18
2019-08-01 16:00:00 30.7 7 Oeste 32 Oeste 0 923.7 -0.2 19
2019-08-01 15:00:00 29.6 9 Oeste 31 Oeste 0 923.8 -0.1 22
2019-08-01 14:00:00 29.3 8 Oeste 26 Sudoeste 0 924 0.2 27
2019-08-01 13:00:00 29.4 9 Oeste 30 Oeste 0 923.9 0.3 24
2019-08-01 12:00:00 27.9 5 Sur 22 Noroeste 0 923.9 0.4 33
2019-08-01 11:00:00 26.7 3 Sudoeste 16 Sudoeste 0 923.8 0.6 42
2019-08-01 10:00:00 23.8 8 Este 19 Este 0 923.6 0.5 53
2019-08-01 09:00:00 21.4 8 Sudeste 19 Este 0 923.5 0.6 62
2019-08-01 08:00:00 18.4 5 Este 10 Este 0 923.2 0.2 75
2019-08-01 07:00:00 18.2 4 Este 12 Este 0.2 923.1 0 75
2019-08-01 06:00:00 20 7 Este 19 Este 0 922.9 -0.8 60
2019-08-01 05:00:00 20.4 6 Este 21 Este 0 923 -1 54
2019-08-01 04:00:00 20.7 8 Sudeste 21 Sudeste 0 923.1 -1.2 49
2019-08-01 03:00:00 21.5 8 Este 21 Sudeste 0 923.7 -0.3 44
2019-08-01 02:00:00 21.9 13 Este 25 Sudeste 0 924 0.1 40
2019-08-01 01:00:00 22.9 12 Este 31 Sudeste 0 924.3 0.7 36
2019-08-01 00:00:00 23.9 13 Este 32 Este 0 924 0.6 33
2019-07-31 23:00:00 22.3 8 Este 19 Sudeste 0 923.9 0.9 39
2019-07-31 22:00:00 22.9 3 Sudoeste 8 Norte 0 923.6 0.5 38
2019-07-31 21:00:00 25.2 2 Este 22 Noroeste 0 923.4 -0.1 32
2019-07-31 20:00:00 26.8 10 Norte 26 Norte 0 923 -0.9 28
2019-07-31 19:00:00 28.9 10 Norte 25 Noroeste 0 923.1 -1.5 25
2019-07-31 18:00:00 30.8 8 Noroeste 23 Noroeste 0 923.5 -1.7 22
2019-07-31 17:00:00 31.7 4 Oeste 20 Noroeste 0 923.9 -2.1 21
2019-07-31 16:00:00 29.9 4 Noroeste 16 Norte 0 924.6 -2 25
2019-07-31 15:00:00 27.9 7 Este 22 Este 0 925.2 -1.8 29
2019-07-31 14:00:00 26.3 9 Este 18 Este 0 926 -1.3 31
2019-07-31 13:00:00 24.3 8 Este 26 Sudeste 0 926.6 -0.8 33
2019-07-31 12:00:00 21.7 15 Este 31 Este 0 927 -0.9 37
2019-07-31 11:00:00 20 16 Este 39 Este 0 927.3 -0.9 41
2019-07-31 10:00:00 17.9 19 Este 39 Este 0 927.4 -1 44
2019-07-31 09:00:00 13.9 10 Este 20 Este 0 927.9 -0.4 60
2019-07-31 08:00:00 12 7 Este 17 Este 0 928.2 -0.4 68
2019-07-31 07:00:00 11.9 6 Este 17 Este 0 928.4 -0.3 68
2019-07-31 06:00:00 12.4 8 Este 19 Este 0 928.3 -0.5 67
2019-07-31 05:00:00 13.3 9 Este 22 Sudeste 0 928.6 -0.1 63
2019-07-31 04:00:00 14.2 12 Este 24 Este 0 928.7 -0.1 60
2019-07-31 03:00:00 14.8 10 Este 22 Sudeste 0 928.8 0.2 58
2019-07-31 02:00:00 11.1 3 Este 7 Este 0 928.7 0.5 67
2019-07-31 01:00:00 12.7 0 Calma 7 Sudeste 0 928.8 1.1 62
2019-07-31 00:00:00 15.6 0 Calma 15 Noroeste 0 928.6 1.3 59
2019-07-30 23:00:00 17.3 3 Oeste 18 Noroeste 0 928.2 1.2 47
2019-07-30 22:00:00 19.2 6 Norte 22 Norte 0 927.7 0.8 38
2019-07-30 21:00:00 21.2 12 Norte 27 Noroeste 0 927.3 0.1 31
2019-07-30 20:00:00 22.9 9 Norte 28 Noroeste 0 927 -0.6 22
2019-07-30 19:00:00 23.9 9 Norte 28 Noroeste 0 926.9 -1.2 19
2019-07-30 18:00:00 24.9 9 Norte 22 Noroeste 0 927.2 -1.3 19
2019-07-30 17:00:00 24.4 10 Noroeste 27 Noroeste 0 927.6 -1.2 21
2019-07-30 16:00:00 23.3 8 Noroeste 26 Noroeste 0 928.1 -1 26
2019-07-30 15:00:00 22.5 6 Noroeste 28 Noroeste 0 928.5 -0.8 31
2019-07-30 14:00:00 22.4 7 Oeste 19 Noroeste 0 928.8 -0.5 31
2019-07-30 13:00:00 21.8 3 Sudoeste 13 Oeste 0 929.1 -0.2 34
2019-07-30 12:00:00 20.6 4 Oeste 18 Noroeste 0 929.3 0.2 36
2019-07-30 11:00:00 19.8 5 Oeste 18 Oeste 0 929.3 0.7 46
2019-07-30 10:00:00 18.4 5 Oeste 14 Sudoeste 0 929.3 1.1 55
2019-07-30 09:00:00 14.9 4 Sudoeste 15 Sudoeste 0 929.1 1.2 67
2019-07-30 08:00:00 12.4 4 Sudoeste 11 Sudoeste 0 928.6 1.1 68
2019-07-30 07:00:00 11.1 4 Sudoeste 13 Oeste 0 928.2 0.9 69
2019-07-30 06:00:00 10.9 4 Sudoeste 12 Oeste 0 927.9 0.7 74
2019-07-30 05:00:00 11.4 5 Sudoeste 10 Sudoeste 0 927.5 0.6 79
2019-07-30 04:00:00 11.6 3 Sudoeste 6 Oeste 0 927.3 0.8 76
2019-07-30 03:00:00 12.6 2 Sudoeste 8 Oeste 0 927.2 1.2 76
2019-07-30 02:00:00 13.8 2 Sudoeste 10 Norte 0 926.9 1.6 73
2019-07-30 01:00:00 15.2 5 Noroeste 17 Noroeste 0 926.5 2.2 70
2019-07-30 00:00:00 17.7 4 Oeste 21 Oeste 0 926 2.4 44
2019-07-29 23:00:00 19.2 5 Oeste 15 Oeste 0 925.3 2.3 26
2019-07-29 22:00:00 21.4 4 Oeste 21 Oeste 0 924.3 1.7 23
2019-07-29 21:00:00 24.1 7 Oeste 28 Noroeste 0 923.6 1 20
2019-07-29 20:00:00 26.2 9 Oeste 37 Oeste 0 923 0.2 17
2019-07-29 19:00:00 27.2 9 Oeste 33 Oeste 0 922.6 -0.2 17
2019-07-29 18:00:00 29.6 8 Oeste 32 Sudoeste 0 922.6 -0.3 20
2019-07-29 17:00:00 29.6 11 Oeste 36 Oeste 0 922.8 -0.4 23
2019-07-29 16:00:00 28.8 13 Sudoeste 37 Sudoeste 0 922.8 -0.8 23
2019-07-29 15:00:00 27.7 10 Sudoeste 37 Oeste 0 922.9 -0.8 25
2019-07-29 14:00:00 26.4 10 Sudoeste 34 Oeste 0 923.2 -0.6 26
2019-07-29 13:00:00 25.8 7 Oeste 26 Sudoeste 0 923.6 -0.2 24
2019-07-29 12:00:00 24.2 11 Sudoeste 36 Oeste 0 923.7 0.1 25
2019-07-29 11:00:00 22.9 8 Oeste 23 Oeste 0 923.8 0.3 29
2019-07-29 10:00:00 20.6 5 Noroeste 10 Noroeste 0 923.8 0.8 39
2019-07-29 09:00:00 16 4 Este 8 Este 0 923.6 0.9 47
2019-07-29 08:00:00 11.1 3 Este 5 Este 0 923.5 1.2 68
2019-07-29 07:00:00 7.9 0 Calma 5 Sudoeste 0 923 0.7 72
2019-07-29 06:00:00 9.3 0 Calma 9 Oeste 0 922.7 0.4 72
2019-07-29 05:00:00 10 0 Calma 4 Este 0 922.3 -0.1 60
2019-07-29 04:00:00 11 2 Sudeste 7 Sudeste 0 922.3 -0.1 59
2019-07-29 03:00:00 12.3 5 Este 9 Sudeste 0 922.3 -0.1 55
2019-07-29 02:00:00 12.8 5 Este 8 Este 0 922.4 0 57
2019-07-29 01:00:00 13.5 4 Este 7 Este 0 922.4 0.6 48
2019-07-29 00:00:00 14.9 2 Este 5 Sudeste 0 922.4 0.7 43
2019-07-28 23:00:00 17.3 0 Calma 5 Sudoeste 0 922.4 0.9 39
2019-07-28 22:00:00 20.6 2 Sudoeste 9 Noroeste 0 921.8 0.4 34
2019-07-28 21:00:00 23.9 4 Noroeste 15 Noroeste 0 921.7 0 21
2019-07-28 20:00:00 24.9 6 Noroeste 25 Noroeste 0 921.5 -0.7 17
2019-07-28 19:00:00 25.6 9 Noroeste 24 Noroeste 0 921.4 -1.4 16
2019-07-28 18:00:00 26.3 12 Noroeste 25 Noroeste 0 921.7 -1.4 16
2019-07-28 17:00:00 26.2 6 Oeste 24 Noroeste 0 922.2 -1.3 20
2019-07-28 16:00:00 24.9 6 Noroeste 25 Oeste 0 922.8 -1.1 23
2019-07-28 15:00:00 23.6 4 Noroeste 20 Oeste 0 923.1 -1.3 24
2019-07-28 14:00:00 22.9 7 Sudoeste 23 Sudoeste 0 923.5 -1.3 29
2019-07-28 13:00:00 22.2 5 Sudoeste 18 Sudoeste 0 923.9 -1 32
2019-07-28 12:00:00 20.8 4 Oeste 12 Sudoeste 0 924.4 -0.3 38
2019-07-28 11:00:00 19.8 3 Sudeste 8 Sudoeste 0 924.8 0.4 45
2019-07-28 10:00:00 17.7 2 Oeste 8 Sudoeste 0 924.9 0.8 52
2019-07-28 09:00:00 15 3 Oeste 9 Oeste 0 924.7 0.7 63
2019-07-28 08:00:00 11.1 0 Calma 5 Sudoeste 0 924.4 0.2 74
2019-07-28 07:00:00 7.7 3 Sudoeste 7 Sudoeste 0 924.1 -0.2 83
2019-07-28 06:00:00 8.3 3 Sudoeste 6 Sudoeste 0 924 -0.4 81
2019-07-28 05:00:00 9 0 Calma 8 Sudoeste 0 924.2 -0.1 83
2019-07-28 04:00:00 9.5 2 Sudoeste 8 Sudoeste 0 924.3 0 79
2019-07-28 03:00:00 10.4 2 Sudoeste 7 Sudoeste 0 924.4 0.3 78
2019-07-28 02:00:00 11.8 2 Oeste 10 Norte 0 924.3 0.3 76
2019-07-28 01:00:00 12.5 0 Calma 7 Noroeste 0 924.3 1.2 72
2019-07-28 00:00:00 13.7 3 Norte 16 Noroeste 0 924.1 1.9 68
2019-07-27 23:00:00 14.8 4 Norte 17 Nordeste 0 924 2.6 66
2019-07-26 12:00:00 23.6 7 Sudoeste 21 Sudoeste 0 924.3 0 54
2019-07-26 11:00:00 22.1 2 Oeste 12 Sudoeste 0 924.4 0.7 64
2019-07-26 10:00:00 20.1 4 Oeste 22 Sudoeste 0 924.5 1.1 69
2019-07-26 09:00:00 17.6 9 Sudoeste 23 Sudoeste 0 924.3 0.6 78
2019-07-26 08:00:00 17.6 6 Sudoeste 12 Sudoeste 0 923.7 -0.6 84
2019-07-26 07:00:00 17.9 2 Oeste 14 Sudoeste 0 923.4 -0.8 86
2019-07-26 06:00:00 18.7 4 Oeste 20 Sudoeste 1.2 923.7 -0.4 83
2019-07-26 05:00:00 20 5 Oeste 20 Oeste 0 924.3 0 71
2019-07-26 04:00:00 20.3 6 Sudoeste 15 Sudoeste 0 924.2 -0.4 70
2019-07-26 03:00:00 20.1 4 Sudoeste 9 Sudoeste 0 924.1 -0.2 71
2019-07-26 02:00:00 20.3 0 Calma 11 Oeste 0 924.3 0.5 69
2019-07-26 01:00:00 21.5 4 Oeste 13 Oeste 0 924.6 1.1 53
2019-07-26 00:00:00 22.9 2 Sudoeste 13 Oeste 0 924.3 1.4 43